Time;durP1;ratioP1;P1;durP2;ratioP2;P2;SDS_P1;SDS_P2;PMS_P1;PMS_P2;Temp;Humidity;BMP_temperature;BMP_pressure;BME280_temperature;BME280_humidity;BME280_pressure;Samples;Min_cycle;Max_cycle;Signal;HPM_P1;HPM_P2
2022/02/21 00:02:08;;;;;;;0.00;0.00;;;;;;;4.31;81.17;99445.19;7356452;19;20015;-62
2022/02/21 00:04:33;;;;;;;0.00;0.00;;;;;;;4.34;81.07;99446.84;7361591;19;20014;-63
2022/02/21 00:06:59;;;;;;;0.00;0.00;;;;;;;4.38;80.61;99451.94;7351546;19;20430;-64
2022/02/21 00:09:24;;;;;;;0.00;0.00;;;;;;;4.41;80.60;99426.06;7358899;19;20010;-63
2022/02/21 00:11:50;;;;;;;0.00;0.00;;;;;;;4.39;80.51;99432.97;7364571;19;20034;-63
2022/02/21 00:14:15;;;;;;;0.00;0.00;;;;;;;4.46;80.43;99443.19;7364039;19;20021;-63
2022/02/21 00:16:41;;;;;;;0.00;0.00;;;;;;;4.51;80.05;99426.75;7363638;19;20029;-63
2022/02/21 00:19:06;;;;;;;0.00;0.00;;;;;;;4.54;80.57;99447.34;7365546;19;20545;-63
2022/02/21 00:21:32;;;;;;;0.10;0.10;;;;;;;4.56;80.33;99439.56;7355998;19;20010;-63
2022/02/21 00:23:57;;;;;;;0.00;0.00;;;;;;;4.59;79.93;99444.69;7359308;19;20027;-63
2022/02/21 00:26:23;;;;;;;0.00;0.00;;;;;;;4.60;80.17;99436.88;7361172;19;20081;-63
2022/02/21 00:28:49;;;;;;;0.00;0.00;;;;;;;4.62;80.38;99447.22;7355618;19;20007;-64
2022/02/21 00:31:14;;;;;;;0.00;0.00;;;;;;;4.63;79.95;99456.69;7358497;19;20094;-63
2022/02/21 00:33:40;;;;;;;0.00;0.00;;;;;;;4.55;80.47;99448.19;7358589;19;20074;-63
2022/02/21 00:36:06;;;;;;;0.00;0.00;;;;;;;4.66;80.31;99446.25;7360096;19;20371;-63
2022/02/21 00:38:32;;;;;;;0.00;0.00;;;;;;;4.67;80.26;99458.34;7354769;19;20006;-63
2022/02/21 00:40:57;;;;;;;0.00;0.00;;;;;;;4.68;79.82;99449.69;7359472;19;20036;-65
2022/02/21 00:43:23;;;;;;;0.00;0.00;;;;;;;4.70;80.03;99466.00;7356620;19;20015;-64
2022/02/21 00:45:48;;;;;;;0.10;0.10;;;;;;;4.60;79.84;99430.88;7360030;19;20111;-63
2022/02/21 00:48:14;;;;;;;0.00;0.00;;;;;;;4.75;79.79;99471.09;7359345;19;20034;-63
2022/02/21 00:50:40;;;;;;;0.00;0.00;;;;;;;4.79;80.32;99458.09;7355350;19;20018;-62
2022/02/21 00:53:05;;;;;;;0.00;0.00;;;;;;;4.83;80.15;99472.66;7356376;19;20014;-62
2022/02/21 00:55:42;;;;;;;0.00;0.00;;;;;;;4.91;80.56;99473.34;5729417;19;10002064;-63
2022/02/21 00:58:07;;;;;;;0.00;0.00;;;;;;;4.97;79.93;99471.53;3139436;19;10001957;-63
2022/02/21 01:00:34;;;;;;;0.00;0.00;;;;;;;5.03;80.23;99467.09;7356755;19;20010;-62
2022/02/21 01:03:01;;;;;;;0.00;0.00;;;;;;;5.11;80.10;99495.41;7357279;19;20022;-63
2022/02/21 01:05:26;;;;;;;0.00;0.00;;;;;;;5.17;79.98;99479.75;7357709;19;20010;-63
2022/02/21 01:07:52;;;;;;;0.00;0.00;;;;;;;5.21;79.97;99461.53;7358702;19;20014;-63
2022/02/21 01:10:18;;;;;;;0.00;0.00;;;;;;;5.28;80.03;99464.88;7358860;19;20466;-63
2022/02/21 01:12:43;;;;;;;0.00;0.00;;;;;;;5.31;79.59;99464.78;7355925;19;20026;-63
2022/02/21 01:15:11;;;;;;;0.00;0.00;;;;;;;5.39;79.49;99490.53;7355288;19;20322;-63
2022/02/21 01:17:36;;;;;;;0.00;0.00;;;;;;;5.43;79.25;99461.97;7355253;19;20015;-63
2022/02/21 01:20:06;;;;;;;0.00;0.00;;;;;;;5.46;78.83;99474.81;7358342;19;20454;-63
2022/02/21 01:22:32;;;;;;;0.00;0.00;;;;;;;5.52;78.65;99476.41;7359309;19;20011;-63
2022/02/21 01:24:57;;;;;;;0.10;0.10;;;;;;;5.54;78.75;99453.09;7357803;19;20021;-63
2022/02/21 01:27:23;;;;;;;0.00;0.00;;;;;;;5.54;78.57;99461.72;7357636;19;20010;-63
2022/02/21 01:29:48;;;;;;;0.00;0.00;;;;;;;5.59;78.93;99456.44;7357215;19;20018;-63
2022/02/21 01:32:14;;;;;;;0.00;0.00;;;;;;;5.61;79.10;99444.31;7356482;19;20830;-64
2022/02/21 01:34:39;;;;;;;0.00;0.00;;;;;;;5.68;78.20;99497.69;7356171;19;20449;-63
2022/02/21 01:37:05;;;;;;;0.00;0.00;;;;;;;5.72;78.84;99478.56;7349139;19;20018;-62
2022/02/21 01:39:30;;;;;;;0.10;0.10;;;;;;;5.77;78.42;99481.91;7351006;19;20014;-63
2022/02/21 01:41:56;;;;;;;0.00;0.00;;;;;;;5.81;78.21;99491.31;7354976;19;20015;-63
2022/02/21 01:44:34;;;;;;;0.03;0.03;;;;;;;5.89;78.95;99470.44;7352642;19;20010;-63
2022/02/21 01:46:59;;;;;;;0.00;0.00;;;;;;;5.93;77.39;99462.59;7354385;19;20706;-62
2022/02/21 01:49:25;;;;;;;0.00;0.00;;;;;;;5.98;78.33;99460.75;7358027;19;20010;-63
2022/02/21 01:51:50;;;;;;;0.00;0.00;;;;;;;6.00;77.90;99463.28;7356343;19;19999;-63
2022/02/21 01:54:16;;;;;;;0.00;0.00;;;;;;;6.08;78.24;99465.69;7364729;19;20014;-63
2022/02/21 01:56:41;;;;;;;0.00;0.00;;;;;;;6.14;77.51;99468.16;7365653;19;20009;-63
2022/02/21 01:59:07;;;;;;;0.00;0.00;;;;;;;6.15;77.41;99472.44;7365062;19;19998;-63
2022/02/21 02:01:32;;;;;;;0.00;0.00;;;;;;;6.14;77.08;99470.72;7362321;19;20034;-63
2022/02/21 02:04:01;;;;;;;0.00;0.00;;;;;;;6.32;77.17;99485.81;7361496;19;20037;-63
2022/02/21 02:06:31;;;;;;;0.00;0.00;;;;;;;6.38;76.95;99506.41;7349732;19;20011;-62
2022/02/21 02:08:57;;;;;;;0.00;0.00;;;;;;;6.44;76.98;99527.03;7348396;19;20022;-62
2022/02/21 02:11:25;;;;;;;0.00;0.00;;;;;;;6.40;76.77;99491.69;7356944;19;20455;-63
2022/02/21 02:13:51;;;;;;;;;;;;;;;6.59;77.13;99504.16;7353387;19;20564;-63
2022/02/21 02:16:17;;;;;;;0.00;0.00;;;;;;;6.61;76.60;99507.59;7350552;19;19952;-63
2022/02/21 02:18:43;;;;;;;0.00;0.00;;;;;;;6.63;76.02;99523.94;7353208;19;20082;-63
2022/02/21 02:21:10;;;;;;;0.00;0.00;;;;;;;6.62;75.73;99507.53;7353372;19;20127;-63
2022/02/21 02:23:35;;;;;;;0.00;0.00;;;;;;;6.63;75.45;99522.19;7350667;19;20053;-63
2022/02/21 02:26:01;;;;;;;0.00;0.00;;;;;;;6.66;75.63;99508.31;7353915;19;20421;-63
2022/02/21 02:28:26;;;;;;;0.00;0.00;;;;;;;6.64;75.76;99517.84;7357312;19;20708;-63
2022/02/21 02:30:52;;;;;;;0.00;0.00;;;;;;;6.67;76.19;99518.66;7356513;19;20031;-63
2022/02/21 02:33:17;;;;;;;0.00;0.00;;;;;;;6.67;75.56;99528.16;7353794;19;20026;-63
2022/02/21 02:35:43;;;;;;;0.00;0.00;;;;;;;6.69;76.24;99516.00;7358005;19;20717;-63
2022/02/21 02:38:08;;;;;;;0.10;0.10;;;;;;;6.74;75.80;99512.41;7357816;19;20708;-62
2022/02/21 02:40:34;;;;;;;0.00;0.00;;;;;;;6.77;75.79;99488.13;7359177;19;20010;-63
2022/02/21 02:43:01;;;;;;;0.00;0.00;;;;;;;6.79;75.85;99511.44;7359641;19;20030;-63
2022/02/21 02:45:28;;;;;;;0.00;0.00;;;;;;;6.83;75.77;99534.66;7363122;19;20014;-63
2022/02/21 02:47:54;;;;;;;0.00;0.00;;;;;;;6.84;75.48;99515.59;7359032;19;20056;-63
2022/02/21 02:50:19;;;;;;;0.00;0.00;;;;;;;6.86;75.56;99534.59;7366912;19;20015;-63
2022/02/21 02:52:45;;;;;;;0.00;0.00;;;;;;;6.85;75.85;99491.38;7355175;19;20027;-63
2022/02/21 02:55:10;;;;;;;0.00;0.00;;;;;;;6.91;74.56;99532.72;7355308;19;20114;-64
2022/02/21 02:57:35;;;;;;;0.00;0.00;;;;;;;6.86;74.82;99529.41;7353848;19;20026;-63
2022/02/21 03:00:01;;;;;;;0.00;0.00;;;;;;;6.97;75.40;99532.56;7358755;19;20022;-63
2022/02/21 03:02:27;;;;;;;0.00;0.00;;;;;;;7.02;74.70;99519.47;7364616;19;20026;-63
2022/02/21 03:04:52;;;;;;;0.00;0.00;;;;;;;7.07;74.83;99537.50;7364869;19;20018;-63
2022/02/21 03:07:17;;;;;;;0.00;0.00;;;;;;;7.07;73.39;99516.75;7358628;19;20018;-63
2022/02/21 03:09:43;;;;;;;0.00;0.00;;;;;;;7.14;75.10;99503.53;7363777;19;20010;-61
2022/02/21 03:12:09;;;;;;;0.00;0.00;;;;;;;7.17;73.08;99507.81;7363917;19;20690;-64
2022/02/21 03:14:35;;;;;;;0.00;0.00;;;;;;;7.21;73.99;99551.81;7363925;19;20519;-60
2022/02/21 03:17:00;;;;;;;0.00;0.00;;;;;;;7.24;74.40;99525.75;7366622;19;20006;-63
2022/02/21 03:19:26;;;;;;;0.10;0.10;;;;;;;7.28;73.80;99506.59;7363686;19;20505;-63
2022/02/21 03:21:53;;;;;;;0.00;0.00;;;;;;;7.32;74.30;99522.94;7362047;19;20018;-63
2022/02/21 03:24:18;;;;;;;0.00;0.00;;;;;;;7.34;73.59;99513.38;7365265;19;20022;-63
2022/02/21 03:26:44;;;;;;;0.00;0.00;;;;;;;7.36;74.01;99518.53;7364156;19;20011;-63
2022/02/21 03:29:09;;;;;;;0.00;0.00;;;;;;;7.37;74.23;99557.44;7364797;19;20025;-63
2022/02/21 03:31:35;;;;;;;0.00;0.00;;;;;;;7.36;73.88;99534.97;7362322;19;20021;-63
2022/02/21 03:34:00;;;;;;;0.00;0.00;;;;;;;7.31;74.22;99530.78;7363108;19;20006;-62
2022/02/21 03:36:26;;;;;;;0.00;0.00;;;;;;;7.39;74.30;99550.44;7372759;19;20006;-63
2022/02/21 03:38:51;;;;;;;0.00;0.00;;;;;;;7.37;74.64;99546.19;7373913;19;20031;-64
2022/02/21 03:41:16;;;;;;;0.00;0.00;;;;;;;7.39;74.75;99583.34;7373040;19;20014;-62
2022/02/21 03:43:42;;;;;;;0.00;0.00;;;;;;;7.21;74.98;99509.44;7356705;19;20029;-63
2022/02/21 03:46:08;;;;;;;0.00;0.00;;;;;;;7.42;74.71;99606.66;7365206;19;20022;-62
2022/02/21 03:48:33;;;;;;;0.00;0.00;;;;;;;7.43;74.48;99564.19;7364093;19;20101;-63
2022/02/21 03:50:59;;;;;;;0.00;0.00;;;;;;;7.45;74.75;99550.28;7361746;19;20375;-63
2022/02/21 03:53:24;;;;;;;0.00;0.00;;;;;;;7.44;73.21;99542.53;7362873;19;20089;-63
2022/02/21 03:55:50;;;;;;;0.00;0.00;;;;;;;7.46;73.97;99562.38;7364171;19;20111;-62
2022/02/21 03:58:15;;;;;;;0.00;0.00;;;;;;;7.46;73.91;99546.78;7359390;19;20007;-63
2022/02/21 04:00:41;;;;;;;0.00;0.00;;;;;;;7.47;74.34;99579.66;7359996;19;20025;-63
2022/02/21 04:03:06;;;;;;;0.00;0.00;;;;;;;7.47;73.73;99563.22;7362831;19;20085;-62
2022/02/21 04:05:32;;;;;;;0.00;0.00;;;;;;;7.47;73.92;99579.66;7364630;19;20011;-63
2022/02/21 04:07:57;;;;;;;0.00;0.00;;;;;;;7.48;74.08;99581.34;7364129;19;20310;-63
2022/02/21 04:10:23;;;;;;;0.00;0.00;;;;;;;7.47;73.46;99552.84;7364539;19;20006;-63
2022/02/21 04:12:48;;;;;;;0.00;0.00;;;;;;;7.50;73.46;99574.38;7346084;19;20031;-63
2022/02/21 04:15:14;;;;;;;0.00;0.00;;;;;;;7.58;73.77;99570.72;7363304;19;20046;-63
2022/02/21 04:17:51;;;;;;;0.00;0.00;;;;;;;7.60;74.13;99571.50;7363413;19;20820;-63
2022/02/21 04:20:23;;;;;;;0.00;0.00;;;;;;;7.62;74.00;99588.78;7355814;19;20010;-63
2022/02/21 04:22:49;;;;;;;0.03;0.03;;;;;;;7.62;74.06;99561.94;6606730;19;10000942;-63
2022/02/21 04:25:15;;;;;;;0.00;0.00;;;;;;;7.65;73.73;99593.00;1725623;19;10002090;-63
2022/02/21 04:27:49;;;;;;;0.05;0.05;;;;;;;7.53;73.54;99569.09;7364893;19;20017;-63
2022/02/21 04:30:17;;;;;;;0.00;0.00;;;;;;;7.62;73.13;99595.72;7368114;19;20027;-63
2022/02/21 04:32:46;;;;;;;0.00;0.00;;;;;;;7.59;73.02;99608.78;7363302;19;20027;-62
2022/02/21 04:35:12;;;;;;;0.00;0.00;;;;;;;7.57;73.84;99632.22;7365447;19;20037;-62
2022/02/21 04:37:38;;;;;;;0.00;0.00;;;;;;;7.56;73.50;99593.31;7361065;19;20370;-63
2022/02/21 04:40:06;;;;;;;0.00;0.00;;;;;;;7.53;73.56;99628.00;7364821;19;20107;-63
2022/02/21 04:42:32;;;;;;;0.00;0.00;;;;;;;7.44;74.13;99621.28;7357656;19;20371;-62
2022/02/21 04:44:57;;;;;;;0.00;0.00;;;;;;;7.53;73.12;99648.78;7365765;19;20358;-62
2022/02/21 04:47:23;;;;;;;0.00;0.00;;;;;;;7.57;73.95;99667.75;7363954;19;20021;-62
2022/02/21 04:49:48;;;;;;;0.00;0.00;;;;;;;7.56;73.82;99653.91;7362208;19;20014;-63
2022/02/21 04:52:14;;;;;;;0.00;0.00;;;;;;;7.58;74.85;99669.44;7363326;19;20014;-63
2022/02/21 04:54:39;;;;;;;0.03;0.03;;;;;;;7.64;73.84;99677.06;7362955;19;20348;-63
2022/02/21 04:57:05;;;;;;;0.00;0.00;;;;;;;7.66;73.89;99677.88;7360524;19;20015;-63
2022/02/21 04:59:30;;;;;;;0.00;0.00;;;;;;;7.57;72.85;99639.16;7360082;19;20021;-63
2022/02/21 05:02:00;;;;;;;0.00;0.00;;;;;;;7.68;73.52;99665.69;7364771;19;20041;-62
2022/02/21 05:04:25;;;;;;;0.08;0.08;;;;;;;7.72;73.85;99693.31;7368041;19;20003;-62
2022/02/21 05:06:51;;;;;;;0.00;0.00;;;;;;;7.73;73.94;99689.81;7365690;19;20021;-63
2022/02/21 05:09:16;;;;;;;0.00;0.00;;;;;;;7.76;74.24;99719.16;7365456;19;20674;-63
2022/02/21 05:11:42;;;;;;;0.00;0.00;;;;;;;7.72;73.86;99714.09;7365606;19;20041;-63
2022/02/21 05:14:07;;;;;;;0.00;0.00;;;;;;;7.78;74.48;99713.91;7362490;19;20002;-62
2022/02/21 05:16:32;;;;;;;0.03;0.03;;;;;;;7.79;73.63;99715.63;7366245;19;20354;-63
2022/02/21 05:19:02;;;;;;;0.00;0.00;;;;;;;7.75;74.51;99719.19;7363094;19;20012;-63
2022/02/21 05:21:28;;;;;;;0.00;0.00;;;;;;;7.76;73.89;99731.31;7362736;19;20489;-63
2022/02/21 05:23:53;;;;;;;0.00;0.00;;;;;;;7.75;74.30;99745.19;7366688;19;20483;-62
2022/02/21 05:26:19;;;;;;;0.00;0.00;;;;;;;7.73;74.94;99741.78;7362976;19;20545;-63
2022/02/21 05:28:44;;;;;;;0.00;0.00;;;;;;;7.69;74.52;99750.53;7365110;19;20033;-62
2022/02/21 05:31:10;;;;;;;0.00;0.00;;;;;;;7.67;74.60;99762.72;7359092;19;20340;-63
2022/02/21 05:33:35;;;;;;;0.00;0.00;;;;;;;7.63;75.23;99745.50;7366670;19;20006;-64
2022/02/21 05:36:00;;;;;;;0.00;0.00;;;;;;;7.61;75.06;99786.28;7361680;19;20010;-63
2022/02/21 05:38:26;;;;;;;0.00;0.00;;;;;;;7.58;75.07;99769.00;7364517;19;20010;-62
2022/02/21 05:40:51;;;;;;;0.00;0.00;;;;;;;7.57;75.36;99776.84;7366390;19;20006;-63
2022/02/21 05:43:16;;;;;;;0.00;0.00;;;;;;;7.57;75.35;99808.03;7366292;19;20702;-63
2022/02/21 05:45:42;;;;;;;0.00;0.00;;;;;;;7.52;75.99;99801.19;7364257;19;20014;-63
2022/02/21 05:48:07;;;;;;;0.00;0.00;;;;;;;7.56;75.86;99777.75;7363716;19;20027;-63
2022/02/21 05:50:33;;;;;;;0.00;0.00;;;;;;;7.58;75.81;99781.16;7361300;19;19999;-63
2022/02/21 05:52:58;;;;;;;0.00;0.00;;;;;;;7.43;76.01;99784.97;7364612;19;20033;-63
2022/02/21 05:55:24;;;;;;;0.00;0.00;;;;;;;7.59;75.56;99834.81;7361784;19;20015;-63
2022/02/21 05:57:49;;;;;;;0.00;0.00;;;;;;;7.60;75.25;99846.91;7363572;19;20029;-63
2022/02/21 06:00:15;;;;;;;0.00;0.00;;;;;;;7.62;75.56;99843.41;7361426;19;20014;-63
2022/02/21 06:02:40;;;;;;;0.00;0.00;;;;;;;7.62;75.87;99858.13;7364423;19;20015;-63
2022/02/21 06:05:06;;;;;;;0.00;0.00;;;;;;;7.64;76.07;99866.72;7362901;19;20025;-63
2022/02/21 06:07:31;;;;;;;0.00;0.00;;;;;;;7.69;76.13;99864.88;7363855;19;20352;-64
2022/02/21 06:09:58;;;;;;;0.00;0.00;;;;;;;7.61;76.03;99844.28;7363213;19;20014;-64
2022/02/21 06:12:24;;;;;;;0.00;0.00;;;;;;;7.68;75.69;99878.75;7364647;19;20031;-63
2022/02/21 06:14:49;;;;;;;0.00;0.00;;;;;;;7.63;75.37;99849.44;7361915;19;20010;-63
2022/02/21 06:17:15;;;;;;;0.00;0.00;;;;;;;7.64;75.96;99864.13;7362941;19;20128;-63
2022/02/21 06:19:40;;;;;;;0.00;0.00;;;;;;;7.63;76.22;99904.00;7362518;19;20365;-62
2022/02/21 06:22:06;;;;;;;0.00;0.00;;;;;;;7.58;76.14;99872.09;7364288;19;20473;-63
2022/02/21 06:24:31;;;;;;;0.00;0.00;;;;;;;7.62;76.57;99900.56;7363351;19;20010;-63
2022/02/21 06:26:56;;;;;;;0.00;0.00;;;;;;;7.63;75.94;99910.06;7360716;19;20010;-63
2022/02/21 06:29:22;;;;;;;0.00;0.00;;;;;;;7.64;76.23;99937.75;7364183;19;20017;-63
2022/02/21 06:31:47;;;;;;;0.00;0.00;;;;;;;7.65;76.61;99931.66;7364169;19;20013;-62
2022/02/21 06:34:13;;;;;;;0.00;0.00;;;;;;;7.67;75.98;99955.88;7362059;19;20074;-63
2022/02/21 06:36:38;;;;;;;0.00;0.00;;;;;;;7.66;75.98;99963.72;7366234;19;20010;-63
2022/02/21 06:39:04;;;;;;;0.00;0.00;;;;;;;7.72;76.34;99977.41;7368693;19;20011;-63
2022/02/21 06:41:29;;;;;;;0.00;0.00;;;;;;;7.73;76.34;99980.88;7366080;19;20015;-62
2022/02/21 06:43:55;;;;;;;0.00;0.00;;;;;;;7.75;76.63;99989.47;7370411;19;20018;-63
2022/02/21 06:46:20;;;;;;;0.00;0.00;;;;;;;7.71;76.39;99972.25;7365473;19;20051;-63
2022/02/21 06:48:46;;;;;;;0.00;0.00;;;;;;;7.76;76.19;99988.59;7370675;19;20019;-63
2022/02/21 06:51:11;;;;;;;0.00;0.00;;;;;;;7.77;76.51;99998.97;7368651;19;20018;-63
2022/02/21 06:53:37;;;;;;;0.00;0.00;;;;;;;7.78;76.61;100031.00;7365056;19;20027;-63
2022/02/21 06:56:03;;;;;;;0.00;0.00;;;;;;;7.77;76.42;100031.88;7367994;19;20462;-62
2022/02/21 06:58:28;;;;;;;0.00;0.00;;;;;;;7.77;76.41;100008.50;7365878;19;20026;-63
2022/02/21 07:00:53;;;;;;;0.00;0.00;;;;;;;7.77;76.68;100024.94;7367316;19;20614;-63
2022/02/21 07:03:19;;;;;;;0.00;0.00;;;;;;;7.75;75.91;100018.91;7370185;19;20096;-63
2022/02/21 07:05:44;;;;;;;0.00;0.00;;;;;;;7.75;76.33;100031.06;7361018;19;20014;-63
2022/02/21 07:08:10;;;;;;;0.00;0.00;;;;;;;7.74;76.32;100039.75;7370778;19;20003;-63
2022/02/21 07:10:37;;;;;;;0.00;0.00;;;;;;;7.79;77.17;100058.69;7367438;19;20014;-63
2022/02/21 07:13:02;;;;;;;0.00;0.00;;;;;;;7.79;77.18;100074.28;7369810;19;20027;-63
2022/02/21 07:15:28;;;;;;;0.10;0.10;;;;;;;7.83;76.52;100060.34;7366407;19;20725;-63
2022/02/21 07:17:54;;;;;;;0.00;0.00;;;;;;;7.85;77.03;100084.53;7364523;19;20037;-62
2022/02/21 07:20:19;;;;;;;0.00;0.00;;;;;;;7.85;76.66;100094.94;7368134;19;20025;-63
2022/02/21 07:22:46;;;;;;;0.00;0.00;;;;;;;7.87;76.88;100111.38;7365378;19;20037;-62
2022/02/21 07:25:15;;;;;;;0.00;0.00;;;;;;;7.84;76.57;100103.63;7366387;19;20031;-63
2022/02/21 07:27:45;;;;;;;0.10;0.10;;;;;;;7.91;76.56;100126.03;7367712;19;20010;-62
2022/02/21 07:30:13;;;;;;;0.00;0.00;;;;;;;7.90;76.57;100132.09;7364679;19;20471;-63
2022/02/21 07:32:38;;;;;;;0.00;0.00;;;;;;;7.91;76.80;100152.03;7364510;19;20160;-63
2022/02/21 07:35:05;;;;;;;0.00;0.00;;;;;;;7.94;77.17;100151.09;7366926;19;20031;-63
2022/02/21 07:37:31;;;;;;;0.00;0.00;;;;;;;7.94;77.28;100136.34;7367497;19;20015;-63
2022/02/21 07:39:56;;;;;;;0.00;0.00;;;;;;;7.97;76.71;100130.25;7365258;19;20081;-62
2022/02/21 07:42:22;;;;;;;0.00;0.00;;;;;;;7.94;76.66;100135.50;7350304;19;20010;-63
2022/02/21 07:44:50;;;;;;;0.00;0.00;;;;;;;7.96;76.68;100147.59;7365757;19;20011;-63
2022/02/21 07:47:19;;;;;;;0.00;0.00;;;;;;;7.85;76.77;100157.31;7364244;19;20010;-63
2022/02/21 07:49:44;;;;;;;0.00;0.00;;;;;;;7.96;76.83;100207.38;7362651;19;20517;-63
2022/02/21 07:52:10;;;;;;;0.00;0.00;;;;;;;7.98;76.91;100216.00;7360846;19;20101;-62
2022/02/21 07:54:35;;;;;;;0.10;0.10;;;;;;;8.00;77.24;100224.63;7360980;19;20098;-63
2022/02/21 07:57:01;;;;;;;0.10;0.10;;;;;;;8.03;77.18;100254.91;7359391;19;20037;-63
2022/02/21 07:59:28;;;;;;;0.00;0.00;;;;;;;8.04;77.44;100247.06;7361235;19;20006;-63
2022/02/21 08:01:54;;;;;;;0.00;0.00;;;;;;;8.04;77.62;100282.63;7363660;19;19998;-63
2022/02/21 08:04:19;;;;;;;0.00;0.00;;;;;;;8.05;77.36;100253.13;7363748;19;20010;-62
2022/02/21 08:06:46;;;;;;;0.00;0.00;;;;;;;8.05;77.44;100276.53;7361829;19;20086;-63
2022/02/21 08:09:12;;;;;;;0.00;0.00;;;;;;;8.04;77.37;100283.47;7360855;19;20025;-63
2022/02/21 08:11:37;;;;;;;0.00;0.00;;;;;;;8.05;77.72;100297.34;7362239;19;20095;-62
2022/02/21 08:14:03;;;;;;;0.00;0.00;;;;;;;8.05;77.82;100295.59;7360428;19;20006;-63
2022/02/21 08:16:29;;;;;;;0.00;0.00;;;;;;;8.08;77.50;100320.69;7362514;19;20482;-63
2022/02/21 08:18:55;;;;;;;0.00;0.00;;;;;;;8.09;77.64;100331.94;7361941;19;20364;-63
2022/02/21 08:21:20;;;;;;;0.00;0.00;;;;;;;8.10;77.73;100334.50;7359874;19;20010;-64
2022/02/21 08:23:45;;;;;;;0.10;0.10;;;;;;;8.10;77.81;100354.47;7340838;19;28448;-63
2022/02/21 08:26:11;;;;;;;0.00;0.00;;;;;;;8.10;78.16;100360.53;1085709;19;10002542;-63
2022/02/21 08:28:36;;;;;;;0.00;0.00;;;;;;;8.13;78.06;100391.69;7362176;19;20029;-62
2022/02/21 08:31:02;;;;;;;0.00;0.00;;;;;;;8.12;78.18;100386.53;7366201;19;20710;-63
2022/02/21 08:33:27;;;;;;;0.00;0.00;;;;;;;8.19;78.47;100390.72;7358071;19;20435;-64
2022/02/21 08:35:52;;;;;;;0.00;0.00;;;;;;;8.23;78.62;100415.78;7354728;19;20017;-63
2022/02/21 08:38:18;;;;;;;0.00;0.00;;;;;;;8.11;77.88;100403.88;7362407;19;20014;-63
2022/02/21 08:40:43;;;;;;;0.00;0.00;;;;;;;8.26;78.44;100439.13;7360664;19;20402;-63
2022/02/21 08:43:09;;;;;;;0.00;0.00;;;;;;;8.28;78.40;100466.84;7215496;19;2886075;-63
2022/02/21 08:45:34;;;;;;;0.00;0.00;;;;;;;8.29;78.09;100463.34;7362060;19;20014;-63
2022/02/21 08:48:00;;;;;;;0.00;0.00;;;;;;;8.32;78.26;100454.66;7363169;19;20033;-62
2022/02/21 08:50:25;;;;;;;0.00;0.00;;;;;;;8.34;78.28;100473.69;7364616;19;20027;-62
2022/02/21 08:52:51;;;;;;;0.00;0.00;;;;;;;8.32;77.94;100478.06;7363867;19;20023;-63
2022/02/21 08:55:17;;;;;;;0.00;0.00;;;;;;;8.37;78.05;100478.88;7361090;19;20328;-63
2022/02/21 08:57:44;;;;;;;0.00;0.00;;;;;;;8.42;78.41;100487.47;7366278;19;20025;-63
2022/02/21 09:00:11;;;;;;;0.00;0.00;;;;;;;8.46;78.77;100499.53;7360818;19;20014;-63
2022/02/21 09:02:37;;;;;;;0.00;0.00;;;;;;;8.48;78.31;100487.34;7360362;19;20010;-63
2022/02/21 09:05:03;;;;;;;0.10;0.10;;;;;;;8.67;78.55;100500.03;7361895;19;20022;-63
2022/02/21 09:07:29;;;;;;;0.00;0.00;;;;;;;8.82;78.48;100512.78;7363082;19;20898;-62
2022/02/21 09:09:54;;;;;;;0.00;0.00;;;;;;;9.02;78.56;100531.50;7368629;19;20011;-63
2022/02/21 09:12:20;;;;;;;0.00;0.00;;;;;;;9.19;77.97;100538.13;7356788;19;20037;-63
2022/02/21 09:14:50;;;;;;;0.00;0.00;;;;;;;9.33;77.38;100541.31;7361246;19;20392;-63
2022/02/21 09:17:16;;;;;;;0.00;0.00;;;;;;;9.41;77.28;100542.00;7354760;19;20014;-63
2022/02/21 09:19:41;;;;;;;0.00;0.00;;;;;;;9.46;77.28;100561.03;7359770;19;20011;-63
2022/02/21 09:22:07;;;;;;;0.00;0.00;;;;;;;9.54;77.41;100561.72;7360702;19;20074;-63
2022/02/21 09:24:32;;;;;;;0.00;0.00;;;;;;;9.62;76.95;100591.09;7354629;19;20010;-63
2022/02/21 09:26:58;;;;;;;0.00;0.00;;;;;;;9.76;77.13;100576.91;7361091;19;20010;-63
2022/02/21 09:29:24;;;;;;;0.00;0.00;;;;;;;9.87;76.69;100570.56;7361516;19;20013;-63
2022/02/21 09:31:50;;;;;;;0.00;0.00;;;;;;;9.94;76.26;100592.19;7358927;19;20022;-62
2022/02/21 09:34:15;;;;;;;0.00;0.00;;;;;;;10.01;76.82;100598.97;7360053;19;20700;-62
2022/02/21 09:36:41;;;;;;;0.00;0.00;;;;;;;10.09;76.58;100602.28;7365928;19;20018;-63
2022/02/21 09:39:06;;;;;;;0.00;0.00;;;;;;;10.12;75.88;100607.41;7354475;19;20014;-62
2022/02/21 09:41:32;;;;;;;0.00;0.00;;;;;;;10.23;75.77;100608.91;7364092;19;20470;-63
2022/02/21 09:43:58;;;;;;;0.00;0.00;;;;;;;10.28;75.52;100602.72;7366129;19;20006;-63
2022/02/21 09:46:29;;;;;;;0.10;0.10;;;;;;;10.42;75.67;100618.09;7363290;19;20461;-63
2022/02/21 09:48:57;;;;;;;0.00;0.00;;;;;;;10.54;75.98;100641.31;7354268;19;20011;-63
2022/02/21 09:51:22;;;;;;;0.00;0.00;;;;;;;10.72;75.64;100628.69;7362386;19;20885;-62
2022/02/21 09:53:49;;;;;;;0.00;0.00;;;;;;;10.88;74.69;100650.94;7354163;19;20014;-63
2022/02/21 09:56:14;;;;;;;0.00;0.00;;;;;;;11.00;75.02;100645.41;7358371;19;20010;-63
2022/02/21 09:58:40;;;;;;;0.00;0.00;;;;;;;11.18;74.20;100652.75;7361035;19;20105;-63
2022/02/21 10:01:06;;;;;;;0.00;0.00;;;;;;;11.38;74.05;100672.31;7358628;19;20003;-63
2022/02/21 10:03:42;;;;;;;0.00;0.00;;;;;;;11.62;73.49;100671.63;7349620;19;20017;-63
2022/02/21 10:06:18;;;;;;;0.08;0.08;;;;;;;11.83;74.64;100685.91;7359345;19;20010;-64
2022/02/21 10:09:07;;;;;;;0.00;0.00;;;;;;;11.97;73.36;100688.16;7349095;19;20010;-62
2022/02/21 10:11:34;;;;;;;0.00;0.00;;;;;;;12.04;71.99;100709.75;7362578;19;20425;-63
2022/02/21 10:14:12;;;;;;;0.00;0.00;;;;;;;12.19;71.91;100704.09;7357637;19;20006;-62
2022/02/21 10:16:47;;;;;;;0.00;0.00;;;;;;;12.39;72.76;100711.34;7358313;19;20015;-63
2022/02/21 10:19:28;;;;;;;0.05;0.05;;;;;;;12.50;71.35;100724.97;7358615;19;20027;-63
2022/02/21 10:22:05;;;;;;;0.10;0.10;;;;;;;12.64;70.98;100737.66;7365921;19;20098;-63
2022/02/21 10:24:37;;;;;;;0.00;0.00;;;;;;;12.69;70.10;100728.75;7364148;19;20474;-62
2022/02/21 10:27:09;;;;;;;0.00;0.00;;;;;;;12.80;70.40;100754.63;1106474;19;10002020;-63
2022/02/21 10:29:37;;;;;;;0.00;0.00;;;;;;;12.69;69.82;100773.28;7363958;19;20358;-62
2022/02/21 10:32:06;;;;;;;;;;;;;;;12.68;72.58;100784.69;7358901;19;20017;-63
2022/02/21 10:34:37;;;;;;;0.00;0.00;;;;;;;12.53;69.89;100785.13;7346936;19;19934;-62
2022/02/21 10:37:06;;;;;;;0.00;0.00;;;;;;;12.40;70.46;100787.25;7359074;19;20472;-63
2022/02/21 10:39:32;;;;;;;0.05;0.05;;;;;;;12.27;70.50;100805.97;7358945;19;20010;-63
2022/02/21 10:41:59;;;;;;;0.00;0.00;;;;;;;12.32;71.50;100814.56;7353176;19;20041;-63
2022/02/21 10:44:35;;;;;;;0.10;0.10;;;;;;;12.33;71.40;100827.59;7360067;19;20069;-62
2022/02/21 10:47:15;;;;;;;0.10;0.10;;;;;;;12.27;72.06;100816.47;7356111;19;20003;-63
2022/02/21 10:49:48;;;;;;;0.10;0.10;;;;;;;12.09;71.78;100834.38;7359385;19;20006;-63
2022/02/21 10:52:26;;;;;;;0.00;0.00;;;;;;;11.96;71.84;100848.66;7344617;19;20017;-63
2022/02/21 10:54:53;;;;;;;0.00;0.00;;;;;;;11.63;71.80;100832.91;7360564;19;20010;-63
2022/02/21 10:57:23;;;;;;;0.00;0.00;;;;;;;11.52;72.12;100848.00;7359336;19;20018;-63
2022/02/21 10:59:49;;;;;;;0.00;0.00;;;;;;;11.44;73.16;100844.72;7359011;19;20003;-63
2022/02/21 11:02:16;;;;;;;0.00;0.00;;;;;;;11.62;73.24;100885.28;7358054;19;20477;-63
2022/02/21 11:04:43;;;;;;;0.00;0.00;;;;;;;11.82;74.17;100861.28;7346246;19;20037;-60
2022/02/21 11:07:10;;;;;;;0.10;0.10;;;;;;;12.16;72.77;100882.16;7359333;19;20007;-63
2022/02/21 11:09:38;;;;;;;0.10;0.10;;;;;;;12.49;72.23;100875.19;7355621;19;20074;-63
2022/02/21 11:12:04;;;;;;;0.10;0.10;;;;;;;12.82;71.46;100882.97;7349471;19;20688;-62
2022/02/21 11:14:31;;;;;;;0.00;0.00;;;;;;;13.12;70.60;100894.31;7357960;19;20747;-62
2022/02/21 11:17:00;;;;;;;0.00;0.00;;;;;;;13.41;69.64;100903.97;7355265;19;20561;-62
2022/02/21 11:19:26;;;;;;;0.00;0.00;;;;;;;13.59;68.94;100908.63;7360620;19;20010;-62
2022/02/21 11:21:52;;;;;;;0.00;0.00;;;;;;;13.80;68.76;100938.59;7351704;19;20006;-62
2022/02/21 11:24:22;;;;;;;0.00;0.00;;;;;;;14.05;68.96;100933.38;7363221;19;20010;-63
2022/02/21 11:27:22;;;;;;;0.05;0.05;;;;;;;14.37;71.35;100939.31;7356391;19;20022;-62
2022/02/21 11:30:13;;;;;;;0.10;0.10;;;;;;;14.58;71.02;100943.84;7264191;19;2005777;-62
2022/02/21 11:32:43;;;;;;;0.10;0.10;;;;;;;14.57;66.31;100941.28;7366601;19;20365;-63
2022/02/21 11:35:19;;;;;;;0.00;0.00;;;;;;;14.62;67.92;100936.72;7360473;19;20002;-62